createdAt,value
2022-08-02T00:01:10.326Z,100.00
2022-08-02T00:03:39.843Z,100.00
2022-08-02T00:06:09.701Z,100.00
2022-08-02T00:08:39.203Z,100.00
2022-08-02T00:11:08.836Z,100.00
2022-08-02T00:13:41.157Z,100.00
2022-08-02T00:16:10.822Z,100.00
2022-08-02T00:18:47.059Z,100.00
2022-08-02T00:21:16.725Z,100.00
2022-08-02T00:24:04.986Z,100.00
2022-08-02T00:26:38.242Z,100.00
2022-08-02T00:29:10.363Z,100.00
2022-08-02T00:31:39.875Z,100.00
2022-08-02T00:34:29.148Z,100.00
2022-08-02T00:36:59.003Z,100.00
2022-08-02T00:39:34.775Z,100.00
2022-08-02T00:42:05.769Z,100.00
2022-08-02T00:44:37.897Z,100.00
2022-08-02T00:47:07.907Z,100.00
2022-08-02T00:49:37.572Z,100.00
2022-08-02T00:52:07.671Z,100.00
2022-08-02T00:54:37.525Z,100.00
2022-08-02T00:57:07.192Z,100.00
2022-08-02T00:59:39.350Z,100.00
2022-08-02T01:02:09.251Z,100.00
2022-08-02T01:04:39.261Z,100.00
2022-08-02T01:07:13.600Z,100.00
2022-08-02T01:09:44.575Z,100.00
2022-08-02T01:12:15.161Z,100.00
2022-08-02T01:14:51.132Z,100.00
2022-08-02T01:17:25.506Z,100.00
2022-08-02T01:20:00.255Z,100.00
2022-08-02T01:23:01.062Z,100.00
2022-08-02T01:25:45.674Z,100.00
2022-08-02T01:28:30.422Z,100.00
2022-08-02T01:31:03.035Z,100.00
2022-08-02T01:33:39.406Z,100.00
2022-08-02T01:36:13.507Z,100.00
2022-08-02T01:38:45.101Z,100.00
2022-08-02T01:41:19.267Z,100.00
2022-08-02T01:43:53.315Z,100.00
2022-08-02T01:46:23.340Z,100.00
2022-08-02T01:48:53.851Z,100.00
2022-08-02T01:51:44.675Z,100.00
2022-08-02T01:54:17.558Z,100.00
2022-08-02T01:56:47.895Z,100.00
2022-08-02T01:59:22.942Z,100.00
2022-08-02T02:01:54.726Z,100.00
2022-08-02T02:04:24.810Z,100.00
2022-08-02T02:06:55.603Z,100.00
2022-08-02T02:09:25.598Z,100.00
2022-08-02T02:12:13.077Z,100.00
2022-08-02T02:14:50.270Z,100.00
2022-08-02T02:17:50.563Z,100.00
2022-08-02T02:20:13.895Z,100.00
2022-08-02T02:22:43.578Z,100.00
2022-08-02T02:25:15.061Z,100.00
2022-08-02T02:27:49.563Z,100.00
2022-08-02T02:30:22.033Z,100.00
2022-08-02T02:32:54.030Z,100.00
2022-08-02T02:35:24.837Z,100.00
2022-08-02T02:37:55.077Z,100.00
2022-08-02T02:40:27.543Z,100.00
2022-08-02T02:42:57.832Z,100.00
2022-08-02T02:45:30.217Z,100.00
2022-08-02T02:47:59.810Z,100.00
2022-08-02T02:50:29.438Z,100.00
2022-08-02T02:52:59.130Z,100.00
2022-08-02T02:55:29.465Z,100.00
2022-08-02T02:57:59.345Z,100.00
2022-08-02T03:00:44.593Z,100.00
2022-08-02T03:03:14.241Z,100.00
2022-08-02T03:05:44.290Z,100.00
2022-08-02T03:08:13.886Z,100.00
2022-08-02T03:10:43.636Z,100.00
2022-08-02T03:13:13.392Z,100.00
2022-08-02T03:15:45.571Z,100.00
2022-08-02T03:18:32.649Z,100.00
2022-08-02T03:21:04.485Z,100.00
2022-08-02T03:23:34.790Z,100.00
2022-08-02T03:26:04.514Z,100.00
2022-08-02T03:28:34.331Z,100.00
2022-08-02T03:31:06.533Z,100.00
2022-08-02T03:33:36.919Z,100.00
2022-08-02T03:36:09.643Z,100.00
2022-08-02T03:38:39.822Z,100.00
2022-08-02T03:41:10.435Z,100.00
2022-08-02T03:43:41.149Z,100.00
2022-08-02T03:46:13.766Z,100.00
2022-08-02T03:48:44.287Z,100.00
2022-08-02T03:51:14.341Z,100.00
2022-08-02T03:53:44.245Z,100.00
2022-08-02T03:56:14.231Z,100.00
2022-08-02T03:58:48.862Z,100.00
2022-08-02T04:01:21.532Z,100.00
2022-08-02T04:03:51.069Z,100.00
2022-08-02T04:06:20.714Z,100.00
2022-08-02T04:08:58.028Z,100.00
2022-08-02T04:11:36.201Z,100.00
2022-08-02T04:14:08.454Z,100.00
2022-08-02T04:16:47.582Z,100.00
2022-08-02T04:19:21.735Z,100.00
2022-08-02T04:21:52.503Z,100.00
2022-08-02T04:24:25.708Z,100.00
2022-08-02T04:26:58.098Z,100.00
2022-08-02T04:29:37.041Z,100.00
2022-08-02T04:32:10.270Z,100.00
2022-08-02T04:34:39.894Z,100.00
2022-08-02T04:37:09.721Z,100.00
2022-08-02T04:39:39.297Z,100.00
2022-08-02T04:42:10.831Z,100.00
2022-08-02T04:44:40.562Z,100.00
2022-08-02T04:47:12.763Z,100.00
2022-08-02T04:49:42.328Z,100.00
2022-08-02T04:52:12.065Z,100.00
2022-08-02T04:54:41.870Z,100.00
2022-08-02T04:57:23.745Z,100.00
2022-08-02T04:59:54.676Z,100.00
2022-08-02T05:02:26.826Z,100.00
2022-08-02T05:04:56.313Z,100.00
2022-08-02T05:07:25.870Z,100.00
2022-08-02T05:09:55.338Z,100.00
2022-08-02T05:12:26.180Z,100.00
2022-08-02T05:14:55.666Z,100.00
2022-08-02T05:17:27.814Z,100.00
2022-08-02T05:19:57.825Z,100.00
2022-08-02T05:22:27.369Z,100.00
2022-08-02T05:24:56.857Z,100.00
2022-08-02T05:27:26.375Z,100.00
2022-08-02T05:29:57.808Z,100.00
2022-08-02T05:32:29.929Z,100.00
2022-08-02T05:34:59.533Z,100.00
2022-08-02T05:37:32.261Z,100.00
2022-08-02T05:40:02.750Z,100.00
2022-08-02T05:42:34.575Z,100.00
2022-08-02T05:45:04.118Z,100.00
2022-08-02T05:47:36.178Z,100.00
2022-08-02T05:50:06.370Z,100.00
2022-08-02T05:52:42.786Z,100.00
2022-08-02T05:55:19.807Z,100.00
2022-08-02T05:57:54.510Z,100.00
2022-08-02T06:00:24.694Z,100.00
2022-08-02T06:03:06.103Z,100.00
2022-08-02T06:05:38.008Z,100.00
2022-08-02T06:08:10.343Z,100.00
2022-08-02T06:10:40.846Z,100.00
2022-08-02T06:13:13.532Z,100.00
2022-08-02T06:15:52.917Z,100.00
2022-08-02T06:18:28.330Z,100.00
2022-08-02T06:22:30.687Z,100.00
2022-08-02T06:23:57.615Z,100.00
2022-08-02T06:26:29.502Z,100.00
2022-08-02T06:29:00.351Z,100.00
2022-08-02T06:31:29.930Z,100.00
2022-08-02T06:34:02.038Z,100.00
2022-08-02T06:36:40.117Z,100.00
2022-08-02T06:39:16.274Z,100.00
2022-08-02T06:41:47.183Z,100.00
2022-08-02T06:47:11.162Z,100.00
2022-08-02T06:49:52.406Z,100.00
2022-08-02T06:52:29.347Z,100.00
2022-08-02T06:55:00.752Z,100.00
2022-08-02T06:57:30.668Z,100.00
2022-08-02T07:00:01.910Z,100.00
2022-08-02T07:02:31.760Z,100.00
2022-08-02T07:05:05.533Z,100.00
2022-08-02T07:07:35.247Z,100.00
2022-08-02T07:10:06.430Z,100.00
2022-08-02T07:12:36.801Z,100.00
2022-08-02T07:15:08.741Z,100.00
2022-08-02T07:17:38.955Z,100.00
2022-08-02T07:20:13.548Z,100.00
2022-08-02T07:22:43.346Z,100.00
2022-08-02T07:25:13.446Z,100.00
2022-08-02T07:27:43.366Z,100.00
2022-08-02T07:30:13.998Z,100.00
2022-08-02T07:32:43.573Z,100.00
2022-08-02T07:35:16.364Z,100.00
2022-08-02T07:37:55.416Z,100.00
2022-08-02T07:40:28.050Z,100.00
2022-08-02T07:43:03.442Z,100.00
2022-08-02T07:45:35.614Z,100.00
2022-08-02T07:48:06.144Z,100.00
2022-08-02T07:50:38.630Z,100.00
2022-08-02T07:53:08.158Z,100.00
2022-08-02T07:55:40.110Z,100.00
2022-08-02T07:58:12.863Z,100.00
2022-08-02T08:00:44.306Z,100.00
2022-08-02T08:03:13.861Z,100.00
2022-08-02T08:05:46.086Z,100.00
2022-08-02T08:08:17.737Z,100.00
2022-08-02T08:10:47.717Z,100.00
2022-08-02T08:13:17.496Z,100.00
2022-08-02T08:15:52.343Z,100.00
2022-08-02T08:18:22.414Z,100.00
2022-08-02T08:20:54.468Z,100.00
2022-08-02T08:23:24.109Z,100.00
2022-08-02T08:25:53.834Z,100.00
2022-08-02T08:28:23.366Z,100.00
2022-08-02T08:30:52.918Z,100.00
2022-08-02T08:33:22.432Z,100.00
2022-08-02T08:35:54.610Z,100.00
2022-08-02T08:38:25.168Z,100.00
2022-08-02T08:40:58.087Z,100.00
2022-08-02T08:43:27.622Z,100.00
2022-08-02T08:45:57.854Z,100.00
2022-08-02T08:48:31.379Z,100.00
2022-08-02T08:51:10.805Z,100.00
2022-08-02T08:53:43.422Z,100.00
2022-08-02T08:56:16.544Z,100.00
2022-08-02T08:58:47.473Z,100.00
2022-08-02T09:01:18.112Z,100.00
2022-08-02T09:03:47.866Z,100.00
2022-08-02T09:06:20.566Z,100.00
2022-08-02T09:08:50.140Z,100.00
2022-08-02T09:11:21.201Z,100.00
2022-08-02T09:13:55.048Z,100.00
2022-08-02T09:16:33.604Z,100.00
2022-08-02T09:19:07.738Z,100.00
2022-08-02T09:21:40.923Z,100.00
2022-08-02T09:24:20.277Z,100.00
2022-08-02T09:26:50.419Z,100.00
2022-08-02T09:29:22.117Z,100.00
2022-08-02T09:31:51.780Z,100.00
2022-08-02T09:34:22.716Z,100.00
2022-08-02T09:36:55.296Z,100.00
2022-08-02T09:39:27.524Z,100.00
2022-08-02T09:42:11.504Z,100.00
2022-08-02T09:44:41.435Z,100.00
2022-08-02T09:47:17.519Z,100.00
2022-08-02T09:49:52.678Z,100.00
2022-08-02T09:52:43.072Z,100.00
2022-08-02T09:55:14.367Z,100.00
2022-08-02T09:57:44.211Z,100.00
2022-08-02T10:00:37.133Z,100.00
2022-08-02T10:03:21.560Z,100.00
2022-08-02T10:05:55.744Z,100.00
2022-08-02T10:08:28.908Z,100.00
2022-08-02T10:11:03.597Z,100.00
2022-08-02T10:13:35.958Z,100.00
2022-08-02T10:16:07.095Z,100.00
2022-08-02T10:18:39.985Z,100.00
2022-08-02T10:21:15.237Z,100.00
2022-08-02T10:23:48.746Z,100.00
2022-08-02T10:26:20.449Z,100.00
2022-08-02T10:28:51.213Z,100.00
2022-08-02T10:31:24.018Z,100.00
2022-08-02T10:33:55.026Z,100.00
2022-08-02T10:36:27.308Z,100.00
2022-08-02T10:39:01.313Z,100.00
2022-08-02T10:41:46.935Z,100.00
2022-08-02T10:44:30.692Z,100.00
2022-08-02T10:47:25.930Z,100.00
2022-08-02T10:49:57.696Z,100.00
2022-08-02T10:52:30.241Z,100.00
2022-08-02T10:55:03.448Z,100.00
2022-08-02T10:57:48.705Z,100.00
2022-08-02T11:00:29.812Z,100.00
2022-08-02T11:02:59.354Z,100.00
2022-08-02T11:05:42.518Z,100.00
2022-08-02T11:08:21.522Z,100.00
2022-08-02T11:10:56.735Z,100.00
2022-08-02T11:13:26.471Z,100.00
2022-08-02T11:16:02.081Z,100.00
2022-08-02T11:19:01.654Z,100.00
2022-08-02T11:21:32.150Z,100.00
2022-08-02T11:24:30.359Z,100.00
2022-08-02T11:27:03.721Z,100.00
2022-08-02T11:29:40.632Z,100.00
2022-08-02T11:32:11.491Z,100.00
2022-08-02T11:34:41.992Z,100.00
2022-08-02T11:37:11.661Z,100.00
2022-08-02T11:39:41.403Z,100.00
2022-08-02T11:42:13.808Z,100.00
2022-08-02T11:44:46.613Z,100.00
2022-08-02T11:47:16.209Z,100.00
2022-08-02T11:49:47.109Z,100.00
2022-08-02T11:52:16.731Z,100.00
2022-08-02T11:54:46.650Z,100.00
2022-08-02T11:57:21.256Z,100.00
2022-08-02T11:59:52.236Z,100.00
2022-08-02T12:02:23.012Z,100.00
2022-08-02T12:04:58.526Z,100.00
2022-08-02T12:07:35.415Z,100.00
2022-08-02T12:10:08.840Z,100.00
2022-08-02T12:12:53.671Z,100.00
2022-08-02T12:15:37.814Z,100.00
2022-08-02T12:18:24.366Z,100.00
2022-08-02T12:20:53.872Z,100.00
2022-08-02T12:23:23.411Z,100.00
2022-08-02T12:26:02.986Z,100.00
2022-08-02T12:28:39.123Z,100.00
2022-08-02T12:31:10.871Z,100.00
2022-08-02T12:33:48.545Z,100.00
2022-08-02T12:36:19.113Z,100.00
2022-08-02T12:38:55.079Z,100.00
2022-08-02T12:41:30.843Z,100.00
2022-08-02T12:44:04.498Z,100.00
2022-08-02T12:46:35.599Z,100.00
2022-08-02T12:49:19.873Z,99.93
2022-08-02T12:51:59.227Z,100.00
2022-08-02T12:54:32.853Z,100.00
2022-08-02T12:57:13.226Z,97.40
2022-08-02T12:59:47.315Z,94.19
2022-08-02T13:02:17.721Z,99.04
2022-08-02T13:04:50.021Z,100.00
2022-08-02T13:07:20.137Z,100.00
2022-08-02T13:09:50.235Z,99.94
2022-08-02T13:12:19.799Z,100.00
2022-08-02T13:14:51.905Z,97.80
2022-08-02T13:17:22.133Z,98.00
2022-08-02T13:19:52.551Z,100.00
2022-08-02T13:22:22.899Z,100.00
2022-08-02T13:24:55.572Z,99.44
2022-08-02T13:27:27.036Z,97.35
2022-08-02T13:29:59.831Z,96.65
2022-08-02T13:32:29.888Z,93.97
2022-08-02T13:34:59.965Z,95.82
2022-08-02T13:37:29.557Z,96.44
2022-08-02T13:40:20.572Z,93.09
2022-08-02T13:42:49.102Z,94.96
2022-08-02T13:45:21.342Z,94.18
2022-08-02T13:48:04.090Z,93.84
2022-08-02T13:50:34.626Z,85.21
2022-08-02T13:53:04.151Z,86.50
2022-08-02T13:55:33.755Z,86.77
2022-08-02T13:58:04.908Z,90.11
2022-08-02T14:00:37.018Z,91.63
2022-08-02T14:03:08.313Z,93.00
2022-08-02T14:05:47.646Z,90.73
2022-08-02T14:08:19.189Z,92.03
2022-08-02T14:10:49.520Z,96.43
2022-08-02T14:13:19.329Z,95.64
2022-08-02T14:15:51.528Z,96.71
2022-08-02T14:18:21.104Z,96.83
2022-08-02T14:20:50.591Z,99.91
2022-08-02T14:23:20.107Z,99.36
2022-08-02T14:26:14.129Z,100.00
2022-08-02T14:28:56.822Z,100.00
2022-08-02T14:31:28.913Z,100.00
2022-08-02T14:33:58.415Z,100.00
2022-08-02T14:36:28.239Z,100.00
2022-08-02T14:38:58.114Z,100.00
2022-08-02T14:41:27.734Z,100.00
2022-08-02T14:44:10.039Z,100.00
2022-08-02T14:46:43.087Z,100.00
2022-08-02T14:49:14.336Z,100.00
2022-08-02T14:51:53.790Z,100.00
2022-08-02T14:54:28.196Z,100.00
2022-08-02T14:57:01.141Z,100.00
2022-08-02T14:59:31.228Z,100.00
2022-08-02T15:02:03.715Z,100.00
2022-08-02T15:04:42.505Z,100.00
2022-08-02T15:07:13.221Z,100.00
2022-08-02T15:09:42.830Z,100.00
2022-08-02T15:12:13.325Z,100.00
2022-08-02T15:14:43.711Z,100.00
2022-08-02T15:17:15.966Z,100.00
2022-08-02T15:19:58.052Z,100.00
2022-08-02T15:22:31.050Z,100.00
2022-08-02T15:25:01.989Z,100.00
2022-08-02T15:27:31.578Z,100.00
2022-08-02T15:30:02.620Z,100.00
2022-08-02T15:32:34.730Z,100.00
2022-08-02T15:35:04.225Z,100.00
2022-08-02T15:37:37.157Z,100.00
2022-08-02T15:40:12.209Z,100.00
2022-08-02T15:42:41.708Z,100.00
2022-08-02T15:45:14.669Z,100.00
2022-08-02T15:47:50.660Z,100.00
2022-08-02T15:50:21.001Z,100.00
2022-08-02T15:52:50.542Z,100.00
2022-08-02T15:55:20.229Z,100.00
2022-08-02T15:57:49.778Z,100.00
2022-08-02T16:00:20.536Z,100.00
2022-08-02T16:02:52.627Z,100.00
2022-08-02T16:05:22.391Z,100.00
2022-08-02T16:07:51.874Z,100.00
2022-08-02T16:10:23.127Z,100.00
2022-08-02T16:12:52.599Z,100.00
2022-08-02T16:15:22.211Z,100.00
2022-08-02T16:17:54.750Z,100.00
2022-08-02T16:20:24.638Z,100.00
2022-08-02T16:22:54.174Z,100.00
2022-08-02T16:25:23.799Z,100.00
2022-08-02T16:27:59.556Z,100.00
2022-08-02T16:30:37.807Z,100.00
2022-08-02T16:33:09.969Z,100.00
2022-08-02T16:35:39.450Z,100.00
2022-08-02T16:38:09.031Z,100.00
2022-08-02T16:40:38.716Z,100.00
2022-08-02T16:43:09.201Z,100.00
2022-08-02T16:45:39.054Z,100.00
2022-08-02T16:48:11.254Z,100.00
2022-08-02T16:50:41.483Z,100.00
2022-08-02T16:53:34.168Z,100.00
2022-08-02T16:56:06.153Z,100.00
2022-08-02T16:58:35.757Z,100.00
2022-08-02T17:01:06.878Z,100.00
2022-08-02T17:03:55.984Z,100.00
2022-08-02T17:06:27.399Z,100.00
2022-08-02T17:08:57.649Z,100.00
2022-08-02T17:11:32.436Z,100.00
2022-08-02T17:14:02.099Z,100.00
2022-08-02T17:16:33.447Z,100.00
2022-08-02T17:19:08.367Z,100.00
2022-08-02T17:21:37.905Z,100.00
2022-08-02T17:24:08.824Z,100.00
2022-08-02T17:26:39.051Z,100.00
2022-08-02T17:29:15.945Z,100.00
2022-08-02T17:32:05.471Z,100.00
2022-08-02T17:34:56.569Z,100.00
2022-08-02T17:37:30.077Z,100.00
2022-08-02T17:40:01.902Z,100.00
2022-08-02T17:42:34.002Z,100.00
2022-08-02T17:45:16.339Z,100.00
2022-08-02T17:48:03.765Z,100.00
2022-08-02T17:50:37.379Z,100.00
2022-08-02T17:53:07.145Z,100.00
2022-08-02T17:55:42.332Z,100.00
2022-08-02T17:58:12.541Z,100.00
2022-08-02T18:00:45.082Z,100.00
2022-08-02T18:03:14.810Z,100.00
2022-08-02T18:05:53.347Z,100.00
2022-08-02T18:08:25.028Z,100.00
2022-08-02T18:10:55.885Z,100.00
2022-08-02T18:13:25.771Z,100.00
2022-08-02T18:16:02.591Z,100.00
2022-08-02T18:18:33.646Z,100.00
2022-08-02T18:21:16.018Z,100.00
2022-08-02T18:23:58.746Z,100.00
2022-08-02T18:26:29.678Z,100.00
2022-08-02T18:29:00.114Z,100.00
2022-08-02T18:31:29.723Z,100.00
2022-08-02T18:34:09.773Z,100.00
2022-08-02T18:36:47.029Z,100.00
2022-08-02T18:39:19.298Z,100.00
2022-08-02T18:41:50.342Z,100.00
2022-08-02T18:44:19.966Z,100.00
2022-08-02T18:46:49.786Z,100.00
2022-08-02T18:49:19.317Z,100.00
2022-08-02T18:51:51.607Z,100.00
2022-08-02T18:54:26.657Z,100.00
2022-08-02T18:57:00.511Z,100.00
2022-08-02T18:59:37.461Z,100.00
2022-08-02T19:02:07.305Z,100.00
2022-08-02T19:04:36.936Z,100.00
2022-08-02T19:07:09.213Z,100.00
2022-08-02T19:09:41.268Z,100.00
2022-08-02T19:12:12.229Z,100.00
2022-08-02T19:14:42.621Z,100.00
2022-08-02T19:17:53.365Z,100.00
2022-08-02T19:20:02.579Z,100.00
2022-08-02T19:22:34.983Z,100.00
2022-08-02T19:25:04.582Z,100.00
2022-08-02T19:27:37.828Z,100.00
2022-08-02T19:30:08.981Z,100.00
2022-08-02T19:32:41.365Z,100.00
2022-08-02T19:35:30.428Z,100.00
2022-08-02T19:38:11.956Z,100.00
2022-08-02T19:40:42.323Z,100.00
2022-08-02T19:44:21.669Z,100.00
2022-08-02T19:46:02.612Z,100.00
2022-08-02T19:48:32.305Z,100.00
2022-08-02T19:51:02.225Z,100.00
2022-08-02T19:53:47.478Z,100.00
2022-08-02T19:56:25.602Z,100.00
2022-08-02T19:58:57.724Z,100.00
2022-08-02T20:01:36.930Z,100.00
2022-08-02T20:04:13.025Z,100.00
2022-08-02T20:06:45.933Z,100.00
2022-08-02T20:09:21.316Z,100.00
2022-08-02T20:14:50.729Z,100.00
2022-08-02T20:17:21.645Z,100.00
2022-08-02T20:19:51.304Z,100.00
2022-08-02T20:22:21.741Z,100.00
2022-08-02T20:24:53.894Z,100.00
2022-08-02T20:27:28.464Z,100.00
2022-08-02T20:29:59.747Z,100.00
2022-08-02T20:32:29.218Z,100.00
2022-08-02T20:34:58.770Z,100.00
2022-08-02T20:37:59.156Z,100.00
2022-08-02T20:40:20.814Z,100.00
2022-08-02T20:42:50.317Z,100.00
2022-08-02T20:45:27.020Z,100.00
2022-08-02T20:47:58.490Z,100.00
2022-08-02T20:50:42.106Z,100.00
2022-08-02T20:53:23.343Z,100.00
2022-08-02T20:55:58.567Z,100.00
2022-08-02T20:58:28.221Z,100.00
2022-08-02T21:01:01.304Z,100.00
2022-08-02T21:03:38.719Z,100.00
2022-08-02T21:06:09.860Z,100.00
2022-08-02T21:08:39.403Z,100.00
2022-08-02T21:11:12.863Z,100.00
2022-08-02T21:13:46.449Z,100.00
2022-08-02T21:16:18.478Z,100.00
2022-08-02T21:18:55.784Z,100.00
2022-08-02T21:21:30.118Z,100.00
2022-08-02T21:24:00.240Z,100.00
2022-08-02T21:26:33.913Z,100.00
2022-08-02T21:29:04.482Z,100.00
2022-08-02T21:31:36.819Z,100.00
2022-08-02T21:34:21.918Z,100.00
2022-08-02T21:36:56.537Z,100.00
2022-08-02T21:39:28.906Z,100.00
2022-08-02T21:42:01.847Z,100.00
2022-08-02T21:44:31.758Z,100.00
2022-08-02T21:47:01.421Z,100.00
2022-08-02T21:50:08.559Z,100.00
2022-08-02T21:52:21.202Z,100.00
2022-08-02T21:54:58.930Z,100.00
2022-08-02T21:57:34.764Z,100.00
2022-08-02T22:00:04.613Z,100.00
2022-08-02T22:02:34.113Z,100.00
2022-08-02T22:05:03.593Z,100.00
2022-08-02T22:10:22.936Z,100.00
2022-08-02T22:12:55.008Z,100.00
2022-08-02T22:15:25.735Z,100.00
2022-08-02T22:18:05.850Z,100.00
2022-08-02T22:20:35.491Z,100.00
2022-08-02T22:23:05.304Z,100.00
2022-08-02T22:25:42.713Z,100.00
2022-08-02T22:28:38.592Z,100.00
2022-08-02T22:31:07.611Z,100.00
2022-08-02T22:34:00.882Z,100.00
2022-08-02T22:36:31.825Z,100.00
2022-08-02T22:39:01.852Z,100.00
2022-08-02T22:42:01.580Z,100.00
2022-08-02T22:44:25.068Z,100.00
2022-08-02T22:46:54.844Z,100.00
2022-08-02T22:49:38.396Z,100.00
2022-08-02T22:52:14.258Z,100.00
2022-08-02T22:54:44.115Z,100.00
2022-08-02T22:57:13.722Z,100.00
2022-08-02T22:59:06.569Z,100.00
2022-08-02T22:59:12.607Z,100.00
2022-08-02T22:59:47.040Z,100.00
2022-08-02T23:02:18.318Z,100.00
2022-08-02T23:04:48.173Z,100.00
2022-08-02T23:07:17.811Z,100.00
2022-08-02T23:09:47.258Z,100.00
2022-08-02T23:12:19.286Z,100.00
2022-08-02T23:14:52.055Z,100.00
2022-08-02T23:17:34.405Z,100.00
2022-08-02T23:20:04.450Z,100.00
2022-08-02T23:22:36.291Z,100.00
2022-08-02T23:25:09.161Z,100.00
2022-08-02T23:27:38.982Z,100.00
2022-08-02T23:30:23.272Z,100.00
2022-08-02T23:32:52.754Z,100.00
2022-08-02T23:35:22.278Z,100.00
2022-08-02T23:37:58.877Z,100.00
2022-08-02T23:40:39.174Z,100.00
2022-08-02T23:43:14.482Z,100.00
2022-08-02T23:45:48.367Z,100.00
2022-08-02T23:48:17.929Z,100.00
2022-08-02T23:50:47.888Z,100.00
2022-08-02T23:53:17.419Z,100.00
2022-08-02T23:55:47.052Z,100.00
2022-08-02T23:58:16.578Z,100.00
